createdAt,value
2019-03-26T00:03:32.899Z,5.70
2019-03-26T00:06:17.206Z,5.80
2019-03-26T00:09:02.387Z,5.70
2019-03-26T00:11:53.074Z,5.70
2019-03-26T00:14:38.165Z,5.70
2019-03-26T00:17:22.282Z,5.70
2019-03-26T00:20:06.363Z,5.70
2019-03-26T00:22:50.740Z,5.70
2019-03-26T00:25:40.880Z,5.70
2019-03-26T00:28:25.556Z,5.70
2019-03-26T00:31:12.080Z,5.60
2019-03-26T00:33:56.476Z,5.60
2019-03-26T00:36:41.886Z,5.40
2019-03-26T00:39:26.635Z,5.40
2019-03-26T00:42:11.423Z,5.30
2019-03-26T00:44:55.608Z,5.30
2019-03-26T00:47:40.452Z,5.40
2019-03-26T00:50:25.022Z,5.50
2019-03-26T00:53:10.807Z,5.50
2019-03-26T00:55:55.314Z,5.60
2019-03-26T00:58:39.862Z,5.60
2019-03-26T01:01:24.466Z,5.50
2019-03-26T01:03:57.999Z,5.50
2019-03-26T01:06:41.956Z,5.50
2019-03-26T01:09:26.287Z,5.50
2019-03-26T01:12:11.282Z,5.50
2019-03-26T01:14:56.078Z,5.50
2019-03-26T01:17:42.270Z,5.50
2019-03-26T01:20:28.242Z,5.50
2019-03-26T01:23:12.063Z,5.50
2019-03-26T01:25:56.877Z,5.50
2019-03-26T01:28:41.331Z,5.50
2019-03-26T01:31:25.392Z,5.50
2019-03-26T01:34:10.665Z,5.40
2019-03-26T01:36:55.703Z,5.40
2019-03-26T01:39:40.351Z,5.40
2019-03-26T01:42:24.701Z,5.30
2019-03-26T01:45:09.276Z,5.30
2019-03-26T01:47:53.737Z,5.40
2019-03-26T01:50:38.413Z,5.30
2019-03-26T01:53:22.626Z,5.30
2019-03-26T01:56:07.236Z,5.40
2019-03-26T01:58:52.716Z,5.40
2019-03-26T02:01:26.131Z,5.40
2019-03-26T02:04:10.627Z,5.40
2019-03-26T02:06:55.353Z,5.40
2019-03-26T02:09:40.238Z,5.40
2019-03-26T02:12:25.015Z,5.40
2019-03-26T02:18:18.538Z,5.40
2019-03-26T02:21:02.804Z,5.40
2019-03-26T02:23:46.880Z,5.40
2019-03-26T02:26:31.151Z,5.50
2019-03-26T02:29:15.634Z,5.50
2019-03-26T02:32:00.842Z,5.40
2019-03-26T02:34:34.613Z,5.40
2019-03-26T02:37:18.557Z,5.40
2019-03-26T02:40:03.579Z,5.40
2019-03-26T02:42:48.902Z,5.50
2019-03-26T02:45:33.730Z,5.50
2019-03-26T02:48:18.900Z,5.50
2019-03-26T02:51:03.718Z,5.50
2019-03-26T02:53:48.802Z,5.50
2019-03-26T02:56:33.371Z,5.50
2019-03-26T02:59:17.589Z,5.50
2019-03-26T03:02:01.875Z,5.50
2019-03-26T03:04:46.111Z,5.40
2019-03-26T03:07:35.998Z,5.50
2019-03-26T03:13:23.008Z,5.50
2019-03-26T03:18:51.927Z,5.50
2019-03-26T03:21:36.093Z,5.50
2019-03-26T03:24:21.083Z,5.50
2019-03-26T03:30:08.354Z,5.40
2019-03-26T03:35:57.136Z,5.40
2019-03-26T03:38:42.951Z,5.30
2019-03-26T03:41:27.170Z,5.40
2019-03-26T03:44:11.317Z,5.40
2019-03-26T03:46:55.581Z,5.30
2019-03-26T03:49:40.068Z,5.30
2019-03-26T03:52:24.677Z,5.40
2019-03-26T03:55:14.961Z,5.40
2019-03-26T03:58:00.103Z,5.40
2019-03-26T04:00:45.244Z,5.40
2019-03-26T04:03:30.183Z,5.50
2019-03-26T04:06:14.451Z,5.50
2019-03-26T04:08:59.010Z,5.60
2019-03-26T04:11:32.290Z,5.60
2019-03-26T04:14:16.647Z,5.60
2019-03-26T04:17:01.488Z,5.60
2019-03-26T04:19:46.130Z,5.60
2019-03-26T04:22:30.879Z,5.60
2019-03-26T04:25:15.118Z,5.60
2019-03-26T04:27:59.945Z,5.70
2019-03-26T04:30:44.751Z,5.70
2019-03-26T04:33:29.431Z,5.70
2019-03-26T04:36:25.336Z,5.70
2019-03-26T04:39:00.447Z,5.70
2019-03-26T04:41:35.511Z,5.60
2019-03-26T04:44:20.242Z,5.60
2019-03-26T04:47:06.014Z,5.60
2019-03-26T04:49:51.026Z,5.70
2019-03-26T04:52:35.426Z,5.70
2019-03-26T04:55:24.628Z,5.70
2019-03-26T04:58:09.059Z,5.70
2019-03-26T05:00:53.131Z,5.70
2019-03-26T05:03:36.901Z,5.70
2019-03-26T05:06:21.022Z,5.70
2019-03-26T05:09:05.611Z,5.60
2019-03-26T05:11:49.620Z,5.60
2019-03-26T05:14:33.443Z,5.60
2019-03-26T05:17:18.370Z,5.60
2019-03-26T05:20:03.368Z,5.60
2019-03-26T05:22:48.233Z,5.50
2019-03-26T05:25:32.793Z,5.40
2019-03-26T05:28:17.148Z,5.40
2019-03-26T05:31:01.461Z,5.30
2019-03-26T05:33:47.182Z,5.30
2019-03-26T05:36:32.541Z,5.30
2019-03-26T05:39:16.931Z,5.30
2019-03-26T05:42:01.632Z,5.30
2019-03-26T05:44:46.039Z,5.30
2019-03-26T05:47:30.360Z,5.30
2019-03-26T05:50:15.011Z,5.30
2019-03-26T05:52:59.355Z,5.40
2019-03-26T05:55:44.265Z,5.50
2019-03-26T05:58:28.786Z,5.50
2019-03-26T06:01:12.996Z,5.50
2019-03-26T06:03:57.955Z,5.60
2019-03-26T06:06:42.072Z,5.60
2019-03-26T06:09:26.499Z,5.70
2019-03-26T06:12:11.529Z,5.80
2019-03-26T06:14:56.592Z,5.90
2019-03-26T06:17:41.321Z,6.00
2019-03-26T06:20:25.441Z,6.00
2019-03-26T06:23:10.546Z,6.10
2019-03-26T06:25:55.190Z,6.10
2019-03-26T06:28:39.849Z,6.00
2019-03-26T06:31:24.303Z,6.10
2019-03-26T06:34:11.040Z,6.20
2019-03-26T06:36:55.800Z,6.30
2019-03-26T06:39:42.447Z,6.30
2019-03-26T06:42:27.485Z,6.30
2019-03-26T06:45:13.285Z,6.40
2019-03-26T06:47:58.342Z,6.50
2019-03-26T06:50:43.424Z,6.50
2019-03-26T06:53:29.486Z,6.50
2019-03-26T06:56:15.148Z,6.60
2019-03-26T06:59:00.329Z,6.50
2019-03-26T07:01:43.786Z,6.60
2019-03-26T07:04:29.445Z,6.60
2019-03-26T07:07:14.452Z,6.60
2019-03-26T07:09:59.258Z,6.60
2019-03-26T07:12:43.493Z,6.60
2019-03-26T07:21:49.731Z,6.80
2019-03-26T07:24:32.128Z,6.80
2019-03-26T07:27:05.183Z,6.80
2019-03-26T07:29:48.998Z,6.90
2019-03-26T07:32:39.289Z,6.90
2019-03-26T07:35:23.576Z,6.90
2019-03-26T07:38:08.657Z,6.90
2019-03-26T07:40:53.659Z,7.10
2019-03-26T07:43:37.964Z,7.20
2019-03-26T07:46:26.097Z,7.30
2019-03-26T07:49:11.308Z,7.30
2019-03-26T07:52:01.901Z,7.30
2019-03-26T07:54:45.779Z,7.40
2019-03-26T07:57:30.739Z,7.50
2019-03-26T08:00:14.996Z,7.60
2019-03-26T08:02:59.006Z,7.60
2019-03-26T08:05:43.096Z,7.70
2019-03-26T08:08:27.132Z,7.70
2019-03-26T08:11:10.965Z,8.00
2019-03-26T08:13:55.467Z,8.20
2019-03-26T08:16:39.708Z,8.10
2019-03-26T08:19:23.683Z,7.90
2019-03-26T08:22:07.621Z,8.20
2019-03-26T08:24:52.523Z,8.40
2019-03-26T08:27:37.482Z,8.20
2019-03-26T08:30:23.550Z,8.50
2019-03-26T08:33:07.927Z,8.40
2019-03-26T08:35:52.463Z,8.30
2019-03-26T08:38:37.638Z,8.40
2019-03-26T08:41:23.162Z,8.20
2019-03-26T08:44:08.778Z,8.10
2019-03-26T08:46:54.096Z,8.00
2019-03-26T08:49:38.427Z,7.90
2019-03-26T08:52:13.456Z,7.80
2019-03-26T08:54:57.721Z,7.80
2019-03-26T08:57:41.787Z,8.10
2019-03-26T09:00:26.450Z,8.30
2019-03-26T09:03:11.239Z,8.10
2019-03-26T09:05:56.644Z,7.90
2019-03-26T09:08:41.039Z,7.80
2019-03-26T09:11:26.106Z,7.70
2019-03-26T09:16:53.771Z,7.60
2019-03-26T09:19:37.818Z,7.60
2019-03-26T09:25:24.223Z,7.60
2019-03-26T09:28:08.716Z,7.50
2019-03-26T09:30:53.021Z,7.50
2019-03-26T09:33:40.384Z,7.70
2019-03-26T09:36:24.740Z,8.10
2019-03-26T09:39:08.547Z,8.40
2019-03-26T09:41:52.782Z,8.50
2019-03-26T09:44:38.250Z,8.80
2019-03-26T09:47:22.294Z,8.90
2019-03-26T09:49:57.311Z,9.00
2019-03-26T09:52:41.821Z,9.10
2019-03-26T09:55:26.166Z,9.20
2019-03-26T09:58:11.804Z,9.30
2019-03-26T10:00:56.737Z,9.20
2019-03-26T10:03:40.887Z,9.00
2019-03-26T10:06:25.681Z,8.90
2019-03-26T10:09:10.405Z,8.90
2019-03-26T10:11:54.852Z,8.90
2019-03-26T10:14:39.659Z,8.80
2019-03-26T10:17:12.725Z,8.90
2019-03-26T10:19:57.385Z,8.80
2019-03-26T10:22:41.622Z,8.60
2019-03-26T10:25:28.903Z,8.70
2019-03-26T10:28:21.252Z,8.70
2019-03-26T10:31:05.854Z,8.70
2019-03-26T10:33:50.393Z,8.70
2019-03-26T10:36:34.564Z,8.80
2019-03-26T10:39:09.380Z,8.90
2019-03-26T10:41:55.478Z,9.30
2019-03-26T10:44:40.350Z,9.40
2019-03-26T10:47:25.090Z,9.20
2019-03-26T10:50:10.559Z,9.00
2019-03-26T10:52:55.159Z,9.00
2019-03-26T10:55:38.961Z,9.00
2019-03-26T10:58:12.652Z,8.90
2019-03-26T11:00:57.797Z,9.00
2019-03-26T11:03:41.912Z,8.80
2019-03-26T11:06:28.138Z,8.80
2019-03-26T11:09:21.279Z,8.70
2019-03-26T11:12:04.852Z,8.60
2019-03-26T11:14:49.674Z,8.50
2019-03-26T11:17:34.079Z,8.50
2019-03-26T11:20:18.275Z,8.50
2019-03-26T11:23:05.428Z,8.40
2019-03-26T11:25:49.978Z,8.40
2019-03-26T11:28:37.439Z,8.30
2019-03-26T11:31:21.605Z,8.30
2019-03-26T11:34:06.647Z,8.30
2019-03-26T11:36:51.246Z,8.30
2019-03-26T11:39:37.402Z,8.30
2019-03-26T11:42:21.600Z,8.20
2019-03-26T11:45:09.950Z,8.20
2019-03-26T11:48:00.260Z,8.10
2019-03-26T11:50:44.817Z,8.10
2019-03-26T11:53:29.423Z,8.10
2019-03-26T11:56:14.087Z,8.20
2019-03-26T11:58:57.889Z,8.10
2019-03-26T12:01:42.852Z,8.10
2019-03-26T12:04:28.243Z,8.10
2019-03-26T12:07:12.642Z,8.10
2019-03-26T12:09:57.024Z,8.10
2019-03-26T12:12:43.513Z,8.00
2019-03-26T12:15:27.794Z,7.90
2019-03-26T12:18:12.536Z,7.90
2019-03-26T12:20:56.387Z,7.70
2019-03-26T12:23:41.607Z,7.40
2019-03-26T12:26:26.307Z,7.30
2019-03-26T12:29:11.014Z,7.30
2019-03-26T12:31:54.981Z,7.30
2019-03-26T12:34:39.825Z,7.30
2019-03-26T12:37:25.648Z,7.30
2019-03-26T12:40:09.371Z,7.30
2019-03-26T12:42:53.775Z,7.30
2019-03-26T12:45:26.788Z,7.30
2019-03-26T12:48:11.352Z,7.50
2019-03-26T12:50:56.021Z,7.60
2019-03-26T12:53:41.317Z,7.80
2019-03-26T12:56:28.926Z,7.80
2019-03-26T12:59:30.426Z,7.80
2019-03-26T13:02:15.402Z,7.50
2019-03-26T13:04:59.324Z,7.40
2019-03-26T13:07:44.837Z,7.30
2019-03-26T13:10:28.761Z,7.10
2019-03-26T13:13:13.479Z,7.00
2019-03-26T13:15:57.262Z,7.00
2019-03-26T13:18:41.066Z,7.10
2019-03-26T13:21:27.980Z,7.20
2019-03-26T13:24:11.914Z,7.20
2019-03-26T13:26:56.265Z,7.30
2019-03-26T13:29:40.921Z,7.30
2019-03-26T13:32:24.765Z,7.30
2019-03-26T13:35:09.319Z,7.30
2019-03-26T13:37:53.744Z,7.50
2019-03-26T13:40:27.938Z,7.60
2019-03-26T13:43:25.603Z,7.60
2019-03-26T13:46:12.331Z,7.70
2019-03-26T13:48:57.874Z,7.80
2019-03-26T13:51:41.865Z,7.80
2019-03-26T13:54:26.071Z,7.80
2019-03-26T13:57:10.254Z,7.90
2019-03-26T13:59:55.074Z,7.90
2019-03-26T14:02:39.661Z,7.90
2019-03-26T14:05:24.528Z,7.80
2019-03-26T14:08:08.944Z,7.90
2019-03-26T14:10:53.684Z,7.90
2019-03-26T14:13:38.186Z,8.00
2019-03-26T14:16:22.120Z,8.00
2019-03-26T14:19:06.604Z,8.00
2019-03-26T14:21:51.180Z,8.00
2019-03-26T14:24:36.284Z,7.90
2019-03-26T14:27:20.431Z,7.90
2019-03-26T14:30:04.963Z,7.90
2019-03-26T14:32:49.706Z,7.90
2019-03-26T14:35:33.828Z,7.80
2019-03-26T14:38:08.272Z,7.70
2019-03-26T14:40:54.183Z,7.70
2019-03-26T14:43:39.793Z,7.70
2019-03-26T14:46:24.249Z,7.60
2019-03-26T14:49:09.012Z,7.50
2019-03-26T14:51:53.464Z,7.50
2019-03-26T14:57:20.867Z,7.30
2019-03-26T15:00:04.840Z,7.20
2019-03-26T15:02:50.716Z,7.20
2019-03-26T15:05:37.108Z,7.10
2019-03-26T15:08:23.417Z,7.20
2019-03-26T15:11:08.520Z,7.20
2019-03-26T15:13:52.474Z,7.20
2019-03-26T15:16:36.417Z,7.20
2019-03-26T15:19:20.212Z,7.10
2019-03-26T15:22:04.421Z,7.10
2019-03-26T15:24:48.263Z,7.10
2019-03-26T15:27:21.580Z,7.20
2019-03-26T15:30:06.491Z,7.20
2019-03-26T15:32:51.081Z,7.20
2019-03-26T15:35:35.286Z,7.10
2019-03-26T15:38:19.710Z,7.10
2019-03-26T15:43:52.840Z,7.20
2019-03-26T15:46:38.349Z,6.90
2019-03-26T15:49:22.751Z,6.80
2019-03-26T15:52:08.429Z,6.80
2019-03-26T15:54:42.475Z,6.90
2019-03-26T15:57:27.017Z,6.90
2019-03-26T16:00:11.400Z,6.90
2019-03-26T16:02:55.803Z,6.90
2019-03-26T16:05:40.717Z,6.90
2019-03-26T16:08:25.733Z,6.90
2019-03-26T16:11:10.093Z,6.90
2019-03-26T16:13:54.531Z,6.90
2019-03-26T16:16:38.590Z,6.90
2019-03-26T16:19:32.223Z,7.00
2019-03-26T16:22:08.733Z,7.00
2019-03-26T16:24:53.467Z,7.10
2019-03-26T16:27:37.588Z,7.10
2019-03-26T16:30:23.395Z,7.20
2019-03-26T16:33:08.103Z,7.20
2019-03-26T16:35:53.053Z,7.30
2019-03-26T16:38:37.379Z,7.40
2019-03-26T16:41:22.824Z,7.50
2019-03-26T16:44:07.313Z,7.50
2019-03-26T16:46:52.347Z,7.50
2019-03-26T16:49:36.973Z,7.60
2019-03-26T16:52:21.915Z,7.60
2019-03-26T16:55:06.878Z,7.60
2019-03-26T16:57:51.676Z,7.60
2019-03-26T17:00:36.430Z,7.60
2019-03-26T17:03:31.059Z,7.60
2019-03-26T17:06:11.900Z,7.60
2019-03-26T17:08:57.217Z,7.60
2019-03-26T17:11:41.507Z,7.60
2019-03-26T17:14:26.348Z,7.60
2019-03-26T17:17:10.753Z,7.60
2019-03-26T17:19:55.373Z,7.50
2019-03-26T17:22:40.407Z,7.60
2019-03-26T17:25:24.773Z,7.50
2019-03-26T17:28:10.418Z,7.50
2019-03-26T17:30:45.072Z,7.50
2019-03-26T17:33:31.237Z,7.50
2019-03-26T17:36:21.535Z,7.50
2019-03-26T17:39:07.611Z,7.50
2019-03-26T17:41:53.617Z,7.50
2019-03-26T17:44:37.587Z,7.50
2019-03-26T17:47:25.189Z,7.50
2019-03-26T17:50:09.361Z,7.50
2019-03-26T17:52:53.527Z,7.50
2019-03-26T17:55:37.448Z,7.50
2019-03-26T17:58:21.923Z,7.50
2019-03-26T18:01:06.481Z,7.50
2019-03-26T18:03:50.570Z,7.50
2019-03-26T18:06:34.771Z,7.50
2019-03-26T18:09:18.851Z,7.50
2019-03-26T18:12:02.709Z,7.50
2019-03-26T18:14:46.588Z,7.40
2019-03-26T18:17:30.961Z,7.40
2019-03-26T18:20:15.744Z,7.40
2019-03-26T18:23:00.156Z,7.30
2019-03-26T18:25:44.007Z,7.30
2019-03-26T18:28:28.021Z,7.30
2019-03-26T18:31:12.459Z,7.30
2019-03-26T18:33:57.112Z,7.30
2019-03-26T18:36:41.401Z,7.30
2019-03-26T18:39:26.168Z,7.30
2019-03-26T18:42:10.503Z,7.20
2019-03-26T18:44:54.606Z,7.20
2019-03-26T18:47:39.430Z,7.20
2019-03-26T18:50:26.165Z,7.20
2019-03-26T18:53:10.924Z,7.20
2019-03-26T18:55:54.734Z,7.20
2019-03-26T18:58:38.663Z,7.20
2019-03-26T19:01:23.673Z,7.20
2019-03-26T19:04:08.448Z,7.20
2019-03-26T19:06:52.139Z,7.20
2019-03-26T19:09:36.423Z,7.20
2019-03-26T19:12:20.990Z,7.20
2019-03-26T19:15:05.929Z,7.10
2019-03-26T19:17:39.455Z,7.10
2019-03-26T19:20:12.902Z,7.10
2019-03-26T19:22:57.062Z,7.20
2019-03-26T19:25:41.383Z,7.10
2019-03-26T19:28:25.168Z,7.10
2019-03-26T19:31:09.831Z,7.10
2019-03-26T19:33:54.090Z,7.10
2019-03-26T19:36:38.737Z,7.10
2019-03-26T19:39:23.995Z,7.10
2019-03-26T19:42:08.521Z,7.10
2019-03-26T19:47:37.876Z,7.10
2019-03-26T19:50:23.900Z,7.10
2019-03-26T19:53:08.168Z,7.10
2019-03-26T19:55:53.311Z,7.10
2019-03-26T20:04:02.314Z,7.30
2019-03-26T20:06:46.302Z,7.20
2019-03-26T20:09:30.432Z,7.10
2019-03-26T20:12:15.089Z,7.10
2019-03-26T20:14:59.070Z,7.00
2019-03-26T20:17:43.787Z,7.00
2019-03-26T20:20:28.008Z,7.00
2019-03-26T20:23:12.206Z,6.90
2019-03-26T20:25:59.972Z,7.00
2019-03-26T20:28:44.558Z,7.00
2019-03-26T20:31:29.265Z,7.00
2019-03-26T20:34:13.853Z,7.00
2019-03-26T20:36:58.133Z,7.00
2019-03-26T20:39:42.048Z,6.90
2019-03-26T20:42:26.660Z,6.90
2019-03-26T20:45:00.002Z,6.90
2019-03-26T20:47:44.360Z,6.90
2019-03-26T20:50:28.314Z,6.90
2019-03-26T20:53:12.643Z,6.90
2019-03-26T20:55:56.817Z,6.90
2019-03-26T20:58:41.899Z,6.90
2019-03-26T21:01:15.550Z,6.80
2019-03-26T21:04:00.377Z,6.80
2019-03-26T21:06:45.180Z,6.80
2019-03-26T21:09:29.408Z,6.80
2019-03-26T21:12:13.767Z,6.70
2019-03-26T21:14:57.918Z,6.80
2019-03-26T21:17:41.752Z,6.80
2019-03-26T21:20:26.254Z,6.70
2019-03-26T21:23:10.934Z,6.80
2019-03-26T21:25:54.990Z,6.70
2019-03-26T21:28:40.296Z,6.70
2019-03-26T21:31:24.119Z,6.70
2019-03-26T21:34:08.636Z,6.60
2019-03-26T21:36:52.917Z,6.60
2019-03-26T21:39:37.892Z,6.60
2019-03-26T21:42:22.709Z,6.60
2019-03-26T21:45:07.603Z,6.60
2019-03-26T21:47:51.694Z,6.60
2019-03-26T21:50:36.546Z,6.60
2019-03-26T21:53:20.243Z,6.60
2019-03-26T21:56:06.704Z,6.50
2019-03-26T21:58:51.423Z,6.50
2019-03-26T22:01:36.274Z,6.50
2019-03-26T22:04:20.675Z,6.50
2019-03-26T22:07:05.467Z,6.50
2019-03-26T22:09:49.382Z,6.50
2019-03-26T22:12:34.226Z,6.50
2019-03-26T22:15:19.036Z,6.50
2019-03-26T22:18:03.747Z,6.50
2019-03-26T22:20:48.780Z,6.60
2019-03-26T22:23:32.565Z,6.50
2019-03-26T22:26:17.412Z,6.60
2019-03-26T22:29:01.822Z,6.60
2019-03-26T22:31:46.505Z,6.60
2019-03-26T22:34:31.187Z,6.60
2019-03-26T22:37:16.510Z,6.60
2019-03-26T22:40:01.378Z,6.70
2019-03-26T22:42:45.966Z,6.70
2019-03-26T22:45:30.698Z,6.70
2019-03-26T22:48:14.567Z,6.70
2019-03-26T22:50:58.710Z,6.70
2019-03-26T22:53:42.821Z,6.70
2019-03-26T22:56:28.054Z,6.70
2019-03-26T22:59:12.664Z,6.80
2019-03-26T23:01:57.557Z,6.80
2019-03-26T23:04:41.821Z,6.80
2019-03-26T23:07:26.300Z,6.80
2019-03-26T23:10:10.333Z,6.80
2019-03-26T23:12:54.204Z,6.80
2019-03-26T23:15:38.453Z,6.80
2019-03-26T23:18:22.538Z,6.70
2019-03-26T23:21:06.800Z,6.80
2019-03-26T23:23:51.528Z,6.80
2019-03-26T23:26:35.594Z,6.70
2019-03-26T23:29:19.605Z,6.80
2019-03-26T23:32:03.732Z,6.70
2019-03-26T23:34:47.520Z,6.70
2019-03-26T23:37:31.445Z,6.70
2019-03-26T23:40:16.166Z,6.70
2019-03-26T23:43:00.808Z,6.70
2019-03-26T23:45:46.009Z,6.70
2019-03-26T23:48:30.934Z,6.70
2019-03-26T23:51:15.340Z,6.70
2019-03-26T23:53:59.107Z,6.70
2019-03-26T23:56:43.479Z,6.70
2019-03-26T23:59:28.025Z,6.70
